sensor_id;sensor_type;location;lat;lon;timestamp;temperature;humidity
26964;DHT22;14521;48.148;-1.656;2023-07-31T00:02:42;23.70;92.60
26964;DHT22;14521;48.148;-1.656;2023-07-31T00:06:04;23.70;92.70
26964;DHT22;14521;48.148;-1.656;2023-07-31T00:09:26;23.70;92.70
26964;DHT22;14521;48.148;-1.656;2023-07-31T00:12:48;23.70;92.80
26964;DHT22;14521;48.148;-1.656;2023-07-31T00:16:11;23.70;92.70
26964;DHT22;14521;48.148;-1.656;2023-07-31T00:19:33;23.70;92.70
26964;DHT22;14521;48.148;-1.656;2023-07-31T00:22:55;23.70;92.80
26964;DHT22;14521;48.148;-1.656;2023-07-31T00:26:18;23.70;92.70
26964;DHT22;14521;48.148;-1.656;2023-07-31T00:29:40;23.70;92.70
26964;DHT22;14521;48.148;-1.656;2023-07-31T00:33:02;23.70;92.80
26964;DHT22;14521;48.148;-1.656;2023-07-31T00:36:25;23.70;92.80
26964;DHT22;14521;48.148;-1.656;2023-07-31T00:39:47;23.70;92.80
26964;DHT22;14521;48.148;-1.656;2023-07-31T00:43:09;23.70;92.70
26964;DHT22;14521;48.148;-1.656;2023-07-31T00:46:32;23.70;92.80
26964;DHT22;14521;48.148;-1.656;2023-07-31T00:49:54;23.70;92.80
26964;DHT22;14521;48.148;-1.656;2023-07-31T00:53:16;23.70;92.80
26964;DHT22;14521;48.148;-1.656;2023-07-31T00:56:40;23.70;93.20
26964;DHT22;14521;48.148;-1.656;2023-07-31T01:00:04;23.70;92.80
26964;DHT22;14521;48.148;-1.656;2023-07-31T01:03:26;23.70;92.80
26964;DHT22;14521;48.148;-1.656;2023-07-31T01:10:23;23.70;92.90
26964;DHT22;14521;48.148;-1.656;2023-07-31T01:13:48;23.70;92.90
26964;DHT22;14521;48.148;-1.656;2023-07-31T01:17:11;23.70;92.80
26964;DHT22;14521;48.148;-1.656;2023-07-31T01:20:34;23.70;92.90
26964;DHT22;14521;48.148;-1.656;2023-07-31T01:24:28;23.70;92.90
26964;DHT22;14521;48.148;-1.656;2023-07-31T01:27:59;23.70;92.90
26964;DHT22;14521;48.148;-1.656;2023-07-31T01:31:24;23.70;92.90
26964;DHT22;14521;48.148;-1.656;2023-07-31T01:34:48;23.70;92.90
26964;DHT22;14521;48.148;-1.656;2023-07-31T01:38:11;23.70;92.90
26964;DHT22;14521;48.148;-1.656;2023-07-31T01:41:33;23.70;92.90
26964;DHT22;14521;48.148;-1.656;2023-07-31T01:44:56;23.70;92.90
26964;DHT22;14521;48.148;-1.656;2023-07-31T01:48:18;23.60;92.90
26964;DHT22;14521;48.148;-1.656;2023-07-31T01:51:40;23.60;92.90
26964;DHT22;14521;48.148;-1.656;2023-07-31T01:55:03;23.60;92.90
26964;DHT22;14521;48.148;-1.656;2023-07-31T01:58:25;23.60;92.90
26964;DHT22;14521;48.148;-1.656;2023-07-31T02:01:47;23.60;92.90
26964;DHT22;14521;48.148;-1.656;2023-07-31T02:05:10;23.70;92.90
26964;DHT22;14521;48.148;-1.656;2023-07-31T02:08:33;23.60;92.90
26964;DHT22;14521;48.148;-1.656;2023-07-31T02:11:55;23.60;93.00
26964;DHT22;14521;48.148;-1.656;2023-07-31T02:15:17;23.60;92.90
26964;DHT22;14521;48.148;-1.656;2023-07-31T02:18:40;23.60;92.90
26964;DHT22;14521;48.148;-1.656;2023-07-31T02:22:02;23.60;93.30
26964;DHT22;14521;48.148;-1.656;2023-07-31T02:25:25;23.60;93.50
26964;DHT22;14521;48.148;-1.656;2023-07-31T02:28:47;23.60;93.00
26964;DHT22;14521;48.148;-1.656;2023-07-31T02:32:10;23.60;93.10
26964;DHT22;14521;48.148;-1.656;2023-07-31T02:35:32;23.60;93.10
26964;DHT22;14521;48.148;-1.656;2023-07-31T02:38:54;23.60;93.10
26964;DHT22;14521;48.148;-1.656;2023-07-31T02:42:17;23.60;93.10
26964;DHT22;14521;48.148;-1.656;2023-07-31T02:45:39;23.60;93.10
26964;DHT22;14521;48.148;-1.656;2023-07-31T02:49:02;23.60;93.10
26964;DHT22;14521;48.148;-1.656;2023-07-31T02:52:24;23.60;93.10
26964;DHT22;14521;48.148;-1.656;2023-07-31T02:55:46;23.60;93.20
26964;DHT22;14521;48.148;-1.656;2023-07-31T02:59:08;23.60;93.10
26964;DHT22;14521;48.148;-1.656;2023-07-31T03:02:31;23.50;93.10
26964;DHT22;14521;48.148;-1.656;2023-07-31T03:05:53;23.60;93.30
26964;DHT22;14521;48.148;-1.656;2023-07-31T03:09:16;23.50;93.10
26964;DHT22;14521;48.148;-1.656;2023-07-31T03:12:39;23.50;93.20
26964;DHT22;14521;48.148;-1.656;2023-07-31T03:16:02;23.50;93.10
26964;DHT22;14521;48.148;-1.656;2023-07-31T03:19:24;23.50;93.20
26964;DHT22;14521;48.148;-1.656;2023-07-31T03:22:46;23.50;93.20
26964;DHT22;14521;48.148;-1.656;2023-07-31T03:26:09;23.50;93.20
26964;DHT22;14521;48.148;-1.656;2023-07-31T03:29:31;23.50;93.20
26964;DHT22;14521;48.148;-1.656;2023-07-31T03:32:53;23.50;93.20
26964;DHT22;14521;48.148;-1.656;2023-07-31T03:36:17;23.50;93.20
26964;DHT22;14521;48.148;-1.656;2023-07-31T03:39:39;23.50;93.30
26964;DHT22;14521;48.148;-1.656;2023-07-31T03:43:02;23.50;93.20
26964;DHT22;14521;48.148;-1.656;2023-07-31T03:46:25;23.50;93.30
26964;DHT22;14521;48.148;-1.656;2023-07-31T03:49:47;23.50;93.20
26964;DHT22;14521;48.148;-1.656;2023-07-31T03:53:09;23.50;93.30
26964;DHT22;14521;48.148;-1.656;2023-07-31T03:56:32;23.50;93.30
26964;DHT22;14521;48.148;-1.656;2023-07-31T03:59:57;23.50;93.30
26964;DHT22;14521;48.148;-1.656;2023-07-31T04:03:20;23.50;93.40
26964;DHT22;14521;48.148;-1.656;2023-07-31T04:06:42;23.50;93.40
26964;DHT22;14521;48.148;-1.656;2023-07-31T04:10:04;23.50;93.40
26964;DHT22;14521;48.148;-1.656;2023-07-31T04:13:28;23.40;93.40
26964;DHT22;14521;48.148;-1.656;2023-07-31T04:16:51;23.40;93.50
26964;DHT22;14521;48.148;-1.656;2023-07-31T04:20:14;23.40;93.60
26964;DHT22;14521;48.148;-1.656;2023-07-31T04:23:36;23.40;93.60
26964;DHT22;14521;48.148;-1.656;2023-07-31T04:26:59;23.40;93.60
26964;DHT22;14521;48.148;-1.656;2023-07-31T04:30:21;23.40;93.60
26964;DHT22;14521;48.148;-1.656;2023-07-31T04:33:43;23.40;93.60
26964;DHT22;14521;48.148;-1.656;2023-07-31T04:37:05;23.40;93.70
26964;DHT22;14521;48.148;-1.656;2023-07-31T04:40:27;23.40;93.80
26964;DHT22;14521;48.148;-1.656;2023-07-31T04:43:50;23.40;93.80
26964;DHT22;14521;48.148;-1.656;2023-07-31T04:47:12;23.40;93.80
26964;DHT22;14521;48.148;-1.656;2023-07-31T04:50:34;23.30;93.80
26964;DHT22;14521;48.148;-1.656;2023-07-31T04:53:56;23.40;94.00
26964;DHT22;14521;48.148;-1.656;2023-07-31T04:57:19;23.40;93.90
26964;DHT22;14521;48.148;-1.656;2023-07-31T05:00:41;23.30;94.00
26964;DHT22;14521;48.148;-1.656;2023-07-31T05:04:03;23.30;94.00
26964;DHT22;14521;48.148;-1.656;2023-07-31T05:07:26;23.30;94.00
26964;DHT22;14521;48.148;-1.656;2023-07-31T05:10:48;23.40;94.10
26964;DHT22;14521;48.148;-1.656;2023-07-31T05:14:10;23.30;94.10
26964;DHT22;14521;48.148;-1.656;2023-07-31T05:17:33;23.30;94.10
26964;DHT22;14521;48.148;-1.656;2023-07-31T05:20:55;23.30;94.20
26964;DHT22;14521;48.148;-1.656;2023-07-31T05:24:17;23.30;94.20
26964;DHT22;14521;48.148;-1.656;2023-07-31T05:27:39;23.40;94.20
26964;DHT22;14521;48.148;-1.656;2023-07-31T05:31:05;23.40;94.20
26964;DHT22;14521;48.148;-1.656;2023-07-31T05:34:28;23.30;94.30
26964;DHT22;14521;48.148;-1.656;2023-07-31T05:37:50;23.40;94.30
26964;DHT22;14521;48.148;-1.656;2023-07-31T05:41:13;23.40;94.20
26964;DHT22;14521;48.148;-1.656;2023-07-31T05:44:35;23.40;94.20
26964;DHT22;14521;48.148;-1.656;2023-07-31T05:47:57;23.40;94.30
26964;DHT22;14521;48.148;-1.656;2023-07-31T05:51:20;23.40;94.30
26964;DHT22;14521;48.148;-1.656;2023-07-31T05:54:42;23.40;94.20
26964;DHT22;14521;48.148;-1.656;2023-07-31T05:58:04;23.40;94.20
26964;DHT22;14521;48.148;-1.656;2023-07-31T06:01:26;23.40;94.40
26964;DHT22;14521;48.148;-1.656;2023-07-31T06:04:49;23.40;94.50
26964;DHT22;14521;48.148;-1.656;2023-07-31T06:08:11;23.40;94.60
26964;DHT22;14521;48.148;-1.656;2023-07-31T06:11:34;23.40;95.10
26964;DHT22;14521;48.148;-1.656;2023-07-31T06:14:56;23.50;95.20
26964;DHT22;14521;48.148;-1.656;2023-07-31T06:18:18;23.50;95.10
26964;DHT22;14521;48.148;-1.656;2023-07-31T06:21:40;23.50;95.10
26964;DHT22;14521;48.148;-1.656;2023-07-31T06:25:05;23.50;95.20
26964;DHT22;14521;48.148;-1.656;2023-07-31T06:28:28;23.50;95.20
26964;DHT22;14521;48.148;-1.656;2023-07-31T06:31:53;23.50;95.30
26964;DHT22;14521;48.148;-1.656;2023-07-31T06:35:16;23.50;95.00
26964;DHT22;14521;48.148;-1.656;2023-07-31T06:38:38;23.60;95.00
26964;DHT22;14521;48.148;-1.656;2023-07-31T06:42:00;23.50;95.00
26964;DHT22;14521;48.148;-1.656;2023-07-31T06:45:22;23.50;95.00
26964;DHT22;14521;48.148;-1.656;2023-07-31T06:48:45;23.60;95.00
26964;DHT22;14521;48.148;-1.656;2023-07-31T06:52:07;23.60;95.20
26964;DHT22;14521;48.148;-1.656;2023-07-31T06:55:29;23.60;94.90
26964;DHT22;14521;48.148;-1.656;2023-07-31T06:58:52;23.60;95.40
26964;DHT22;14521;48.148;-1.656;2023-07-31T07:02:14;23.50;95.50
26964;DHT22;14521;48.148;-1.656;2023-07-31T07:05:36;23.50;95.70
26964;DHT22;14521;48.148;-1.656;2023-07-31T07:08:58;23.50;95.70
26964;DHT22;14521;48.148;-1.656;2023-07-31T07:12:21;23.50;95.60
26964;DHT22;14521;48.148;-1.656;2023-07-31T07:15:43;23.50;95.70
26964;DHT22;14521;48.148;-1.656;2023-07-31T07:19:05;23.50;95.60
26964;DHT22;14521;48.148;-1.656;2023-07-31T07:22:28;23.60;95.50
26964;DHT22;14521;48.148;-1.656;2023-07-31T07:25:50;23.60;95.40
26964;DHT22;14521;48.148;-1.656;2023-07-31T07:29:15;23.60;95.50
26964;DHT22;14521;48.148;-1.656;2023-07-31T07:32:37;23.60;96.00
26964;DHT22;14521;48.148;-1.656;2023-07-31T07:36:01;23.60;96.00
26964;DHT22;14521;48.148;-1.656;2023-07-31T07:39:24;23.70;95.50
26964;DHT22;14521;48.148;-1.656;2023-07-31T07:42:47;23.60;95.50
26964;DHT22;14521;48.148;-1.656;2023-07-31T07:46:09;23.70;95.60
26964;DHT22;14521;48.148;-1.656;2023-07-31T07:49:33;23.70;95.70
26964;DHT22;14521;48.148;-1.656;2023-07-31T07:52:56;23.70;96.00
26964;DHT22;14521;48.148;-1.656;2023-07-31T07:56:18;23.70;95.50
26964;DHT22;14521;48.148;-1.656;2023-07-31T07:59:41;23.70;95.90
26964;DHT22;14521;48.148;-1.656;2023-07-31T08:03:03;23.70;95.50
26964;DHT22;14521;48.148;-1.656;2023-07-31T08:06:26;23.70;95.60
26964;DHT22;14521;48.148;-1.656;2023-07-31T08:09:48;23.70;95.60
26964;DHT22;14521;48.148;-1.656;2023-07-31T08:13:11;23.70;95.60
26964;DHT22;14521;48.148;-1.656;2023-07-31T08:16:34;23.80;95.60
26964;DHT22;14521;48.148;-1.656;2023-07-31T08:19:56;23.80;95.60
26964;DHT22;14521;48.148;-1.656;2023-07-31T08:23:20;23.70;95.50
26964;DHT22;14521;48.148;-1.656;2023-07-31T08:26:42;23.70;95.60
26964;DHT22;14521;48.148;-1.656;2023-07-31T08:30:05;23.70;95.70
26964;DHT22;14521;48.148;-1.656;2023-07-31T08:33:27;23.70;95.70
26964;DHT22;14521;48.148;-1.656;2023-07-31T08:36:50;23.70;95.70
26964;DHT22;14521;48.148;-1.656;2023-07-31T08:40:12;23.70;95.90
26964;DHT22;14521;48.148;-1.656;2023-07-31T08:43:36;23.70;95.90
26964;DHT22;14521;48.148;-1.656;2023-07-31T08:47:00;23.70;97.40
26964;DHT22;14521;48.148;-1.656;2023-07-31T08:50:23;23.60;99.90
26964;DHT22;14521;48.148;-1.656;2023-07-31T08:53:45;23.50;99.90
26964;DHT22;14521;48.148;-1.656;2023-07-31T08:57:07;23.40;99.90
26964;DHT22;14521;48.148;-1.656;2023-07-31T09:00:32;23.40;99.90
26964;DHT22;14521;48.148;-1.656;2023-07-31T09:03:55;23.40;99.90
26964;DHT22;14521;48.148;-1.656;2023-07-31T09:07:18;23.40;99.90
26964;DHT22;14521;48.148;-1.656;2023-07-31T09:10:42;23.40;99.90
26964;DHT22;14521;48.148;-1.656;2023-07-31T09:14:05;23.40;99.90
26964;DHT22;14521;48.148;-1.656;2023-07-31T09:17:33;23.40;99.90
26964;DHT22;14521;48.148;-1.656;2023-07-31T09:21:03;23.30;99.90
26964;DHT22;14521;48.148;-1.656;2023-07-31T09:24:31;23.30;99.90
26964;DHT22;14521;48.148;-1.656;2023-07-31T09:28:01;23.30;99.90
26964;DHT22;14521;48.148;-1.656;2023-07-31T09:31:40;23.30;99.90
26964;DHT22;14521;48.148;-1.656;2023-07-31T09:35:22;23.30;99.90
26964;DHT22;14521;48.148;-1.656;2023-07-31T09:38:45;23.30;99.90
26964;DHT22;14521;48.148;-1.656;2023-07-31T09:42:07;23.40;99.90
26964;DHT22;14521;48.148;-1.656;2023-07-31T09:45:33;23.40;99.90
26964;DHT22;14521;48.148;-1.656;2023-07-31T09:49:13;23.40;99.90
26964;DHT22;14521;48.148;-1.656;2023-07-31T09:52:38;23.30;99.90
26964;DHT22;14521;48.148;-1.656;2023-07-31T09:56:01;23.30;99.90
26964;DHT22;14521;48.148;-1.656;2023-07-31T09:59:24;23.20;99.90
26964;DHT22;14521;48.148;-1.656;2023-07-31T10:02:47;23.20;99.90
26964;DHT22;14521;48.148;-1.656;2023-07-31T10:06:09;23.10;99.90
26964;DHT22;14521;48.148;-1.656;2023-07-31T10:09:33;23.10;99.90
26964;DHT22;14521;48.148;-1.656;2023-07-31T10:12:57;23.10;99.90
26964;DHT22;14521;48.148;-1.656;2023-07-31T10:16:20;23.10;99.90
26964;DHT22;14521;48.148;-1.656;2023-07-31T10:19:43;23.10;99.90
26964;DHT22;14521;48.148;-1.656;2023-07-31T10:23:06;23.10;99.90
26964;DHT22;14521;48.148;-1.656;2023-07-31T10:26:29;23.10;99.90
26964;DHT22;14521;48.148;-1.656;2023-07-31T10:29:56;23.10;99.90
26964;DHT22;14521;48.148;-1.656;2023-07-31T10:33:20;23.00;99.90
26964;DHT22;14521;48.148;-1.656;2023-07-31T10:36:42;23.00;99.90
26964;DHT22;14521;48.148;-1.656;2023-07-31T10:40:19;23.00;99.90
26964;DHT22;14521;48.148;-1.656;2023-07-31T10:43:47;22.90;99.90
26964;DHT22;14521;48.148;-1.656;2023-07-31T10:47:10;22.90;99.90
26964;DHT22;14521;48.148;-1.656;2023-07-31T10:50:49;22.90;99.90
26964;DHT22;14521;48.148;-1.656;2023-07-31T10:54:13;22.90;99.90
26964;DHT22;14521;48.148;-1.656;2023-07-31T10:57:37;22.90;99.90
26964;DHT22;14521;48.148;-1.656;2023-07-31T11:01:01;23.00;99.90
26964;DHT22;14521;48.148;-1.656;2023-07-31T11:04:26;23.00;99.90
26964;DHT22;14521;48.148;-1.656;2023-07-31T11:07:49;23.20;99.90
26964;DHT22;14521;48.148;-1.656;2023-07-31T11:11:14;23.30;99.90
26964;DHT22;14521;48.148;-1.656;2023-07-31T11:14:37;23.40;99.90
26964;DHT22;14521;48.148;-1.656;2023-07-31T11:18:01;23.50;99.90
26964;DHT22;14521;48.148;-1.656;2023-07-31T11:21:25;23.50;99.90
26964;DHT22;14521;48.148;-1.656;2023-07-31T11:24:48;23.50;99.90
26964;DHT22;14521;48.148;-1.656;2023-07-31T11:28:15;23.50;99.90
26964;DHT22;14521;48.148;-1.656;2023-07-31T11:31:42;23.50;99.90
26964;DHT22;14521;48.148;-1.656;2023-07-31T11:35:05;23.50;99.90
26964;DHT22;14521;48.148;-1.656;2023-07-31T11:38:31;23.50;99.90
26964;DHT22;14521;48.148;-1.656;2023-07-31T11:41:59;23.50;99.90
26964;DHT22;14521;48.148;-1.656;2023-07-31T11:45:25;23.50;99.90
26964;DHT22;14521;48.148;-1.656;2023-07-31T11:48:49;23.50;99.90
26964;DHT22;14521;48.148;-1.656;2023-07-31T11:52:12;23.50;99.90
26964;DHT22;14521;48.148;-1.656;2023-07-31T11:55:35;23.50;99.90
26964;DHT22;14521;48.148;-1.656;2023-07-31T11:58:59;23.50;99.90
26964;DHT22;14521;48.148;-1.656;2023-07-31T12:02:24;23.50;99.90
26964;DHT22;14521;48.148;-1.656;2023-07-31T12:05:47;23.60;99.90
26964;DHT22;14521;48.148;-1.656;2023-07-31T12:09:10;23.60;99.90
26964;DHT22;14521;48.148;-1.656;2023-07-31T12:12:32;23.60;99.90
26964;DHT22;14521;48.148;-1.656;2023-07-31T12:15:56;23.60;99.90
26964;DHT22;14521;48.148;-1.656;2023-07-31T12:19:19;23.70;99.90
26964;DHT22;14521;48.148;-1.656;2023-07-31T12:22:42;23.70;99.90
26964;DHT22;14521;48.148;-1.656;2023-07-31T12:26:15;23.70;99.90
26964;DHT22;14521;48.148;-1.656;2023-07-31T12:29:39;23.70;99.90
26964;DHT22;14521;48.148;-1.656;2023-07-31T12:36:28;23.70;99.90
26964;DHT22;14521;48.148;-1.656;2023-07-31T12:39:53;23.70;99.90
26964;DHT22;14521;48.148;-1.656;2023-07-31T12:43:16;23.70;99.90
26964;DHT22;14521;48.148;-1.656;2023-07-31T12:46:38;23.70;99.90
26964;DHT22;14521;48.148;-1.656;2023-07-31T12:50:01;23.60;99.90
26964;DHT22;14521;48.148;-1.656;2023-07-31T12:53:24;23.60;99.90
26964;DHT22;14521;48.148;-1.656;2023-07-31T12:56:46;23.60;99.90
26964;DHT22;14521;48.148;-1.656;2023-07-31T13:00:09;23.60;99.90
26964;DHT22;14521;48.148;-1.656;2023-07-31T13:03:31;23.60;99.90
26964;DHT22;14521;48.148;-1.656;2023-07-31T13:06:54;23.60;99.90
26964;DHT22;14521;48.148;-1.656;2023-07-31T13:10:16;23.60;99.90
26964;DHT22;14521;48.148;-1.656;2023-07-31T13:13:39;23.60;99.90
26964;DHT22;14521;48.148;-1.656;2023-07-31T13:17:01;23.60;99.90
26964;DHT22;14521;48.148;-1.656;2023-07-31T13:20:23;23.70;99.90
26964;DHT22;14521;48.148;-1.656;2023-07-31T13:23:46;23.70;99.90
26964;DHT22;14521;48.148;-1.656;2023-07-31T13:27:08;23.60;99.90
26964;DHT22;14521;48.148;-1.656;2023-07-31T13:30:30;23.70;99.90
26964;DHT22;14521;48.148;-1.656;2023-07-31T13:33:53;23.70;99.90
26964;DHT22;14521;48.148;-1.656;2023-07-31T13:37:15;23.60;99.90
26964;DHT22;14521;48.148;-1.656;2023-07-31T13:40:37;23.70;99.90
26964;DHT22;14521;48.148;-1.656;2023-07-31T13:43:39;23.60;99.90
26964;DHT22;14521;48.148;-1.656;2023-07-31T13:47:01;23.70;99.90
26964;DHT22;14521;48.148;-1.656;2023-07-31T13:50:24;23.70;99.90
26964;DHT22;14521;48.148;-1.656;2023-07-31T13:53:47;23.70;99.90
26964;DHT22;14521;48.148;-1.656;2023-07-31T13:57:09;23.70;99.90
26964;DHT22;14521;48.148;-1.656;2023-07-31T14:00:32;23.70;99.90
26964;DHT22;14521;48.148;-1.656;2023-07-31T14:03:54;23.70;99.90
26964;DHT22;14521;48.148;-1.656;2023-07-31T14:07:16;23.70;99.90
26964;DHT22;14521;48.148;-1.656;2023-07-31T14:10:39;23.70;99.90
26964;DHT22;14521;48.148;-1.656;2023-07-31T14:14:02;23.60;99.90
26964;DHT22;14521;48.148;-1.656;2023-07-31T14:17:24;23.60;99.90
26964;DHT22;14521;48.148;-1.656;2023-07-31T14:20:47;23.60;99.90
26964;DHT22;14521;48.148;-1.656;2023-07-31T14:24:09;23.60;99.90
26964;DHT22;14521;48.148;-1.656;2023-07-31T14:27:32;23.60;99.90
26964;DHT22;14521;48.148;-1.656;2023-07-31T14:30:54;23.70;99.90
26964;DHT22;14521;48.148;-1.656;2023-07-31T14:34:16;23.70;99.90
26964;DHT22;14521;48.148;-1.656;2023-07-31T14:37:44;23.70;99.90
26964;DHT22;14521;48.148;-1.656;2023-07-31T14:41:07;23.70;99.90
26964;DHT22;14521;48.148;-1.656;2023-07-31T14:44:29;23.70;99.90
26964;DHT22;14521;48.148;-1.656;2023-07-31T14:47:51;23.70;99.90
26964;DHT22;14521;48.148;-1.656;2023-07-31T14:51:14;23.70;99.90
26964;DHT22;14521;48.148;-1.656;2023-07-31T14:54:36;23.70;99.90
26964;DHT22;14521;48.148;-1.656;2023-07-31T14:57:58;23.70;99.90
26964;DHT22;14521;48.148;-1.656;2023-07-31T15:01:21;23.60;99.90
26964;DHT22;14521;48.148;-1.656;2023-07-31T15:04:43;23.70;99.90
26964;DHT22;14521;48.148;-1.656;2023-07-31T15:08:05;23.70;99.90
26964;DHT22;14521;48.148;-1.656;2023-07-31T15:11:28;23.70;99.90
26964;DHT22;14521;48.148;-1.656;2023-07-31T15:14:50;23.70;99.90
26964;DHT22;14521;48.148;-1.656;2023-07-31T15:18:13;23.80;99.90
26964;DHT22;14521;48.148;-1.656;2023-07-31T15:21:37;23.80;99.90
26964;DHT22;14521;48.148;-1.656;2023-07-31T15:24:59;23.80;99.90
26964;DHT22;14521;48.148;-1.656;2023-07-31T15:28:22;23.80;99.90
26964;DHT22;14521;48.148;-1.656;2023-07-31T15:31:45;23.80;99.90
26964;DHT22;14521;48.148;-1.656;2023-07-31T15:35:08;23.80;99.90
26964;DHT22;14521;48.148;-1.656;2023-07-31T15:38:30;23.80;99.90
26964;DHT22;14521;48.148;-1.656;2023-07-31T15:41:52;23.80;99.90
26964;DHT22;14521;48.148;-1.656;2023-07-31T15:45:15;23.80;99.90
26964;DHT22;14521;48.148;-1.656;2023-07-31T15:48:37;23.90;99.90
26964;DHT22;14521;48.148;-1.656;2023-07-31T15:51:59;23.90;99.90
26964;DHT22;14521;48.148;-1.656;2023-07-31T15:55:22;23.90;99.90
26964;DHT22;14521;48.148;-1.656;2023-07-31T15:58:44;23.90;99.90
26964;DHT22;14521;48.148;-1.656;2023-07-31T16:02:08;23.90;99.90
26964;DHT22;14521;48.148;-1.656;2023-07-31T16:05:32;23.80;99.90
26964;DHT22;14521;48.148;-1.656;2023-07-31T16:08:55;23.80;99.90
26964;DHT22;14521;48.148;-1.656;2023-07-31T16:12:17;23.80;99.90
26964;DHT22;14521;48.148;-1.656;2023-07-31T16:15:39;23.80;99.90
26964;DHT22;14521;48.148;-1.656;2023-07-31T16:19:02;23.80;99.90
26964;DHT22;14521;48.148;-1.656;2023-07-31T16:22:25;23.80;99.90
26964;DHT22;14521;48.148;-1.656;2023-07-31T16:25:47;23.80;99.90
26964;DHT22;14521;48.148;-1.656;2023-07-31T16:28:50;23.90;99.90
26964;DHT22;14521;48.148;-1.656;2023-07-31T16:31:52;23.90;99.90
26964;DHT22;14521;48.148;-1.656;2023-07-31T16:34:59;23.90;99.90
26964;DHT22;14521;48.148;-1.656;2023-07-31T16:38:01;24.00;99.90
26964;DHT22;14521;48.148;-1.656;2023-07-31T16:41:03;24.00;99.90
26964;DHT22;14521;48.148;-1.656;2023-07-31T16:44:05;24.00;99.90
26964;DHT22;14521;48.148;-1.656;2023-07-31T16:47:07;24.00;99.90
26964;DHT22;14521;48.148;-1.656;2023-07-31T16:50:09;24.10;99.90
26964;DHT22;14521;48.148;-1.656;2023-07-31T16:53:12;24.10;99.90
26964;DHT22;14521;48.148;-1.656;2023-07-31T16:56:14;24.10;99.90
26964;DHT22;14521;48.148;-1.656;2023-07-31T16:59:18;24.10;99.90
26964;DHT22;14521;48.148;-1.656;2023-07-31T17:02:20;24.10;99.90
26964;DHT22;14521;48.148;-1.656;2023-07-31T17:05:22;24.10;99.90
26964;DHT22;14521;48.148;-1.656;2023-07-31T17:08:25;24.10;99.90
26964;DHT22;14521;48.148;-1.656;2023-07-31T17:11:28;24.20;99.90
26964;DHT22;14521;48.148;-1.656;2023-07-31T17:14:30;24.20;99.90
26964;DHT22;14521;48.148;-1.656;2023-07-31T17:17:32;24.20;99.90
26964;DHT22;14521;48.148;-1.656;2023-07-31T17:20:34;24.20;99.90
26964;DHT22;14521;48.148;-1.656;2023-07-31T17:23:55;24.20;99.90
26964;DHT22;14521;48.148;-1.656;2023-07-31T17:27:18;24.30;99.90
26964;DHT22;14521;48.148;-1.656;2023-07-31T17:30:40;24.20;99.90
26964;DHT22;14521;48.148;-1.656;2023-07-31T17:34:02;24.20;99.90
26964;DHT22;14521;48.148;-1.656;2023-07-31T17:37:26;24.20;99.90
26964;DHT22;14521;48.148;-1.656;2023-07-31T17:40:51;24.30;99.90
26964;DHT22;14521;48.148;-1.656;2023-07-31T17:44:13;24.30;99.90
26964;DHT22;14521;48.148;-1.656;2023-07-31T17:47:35;24.40;99.90
26964;DHT22;14521;48.148;-1.656;2023-07-31T17:50:58;24.40;99.90
26964;DHT22;14521;48.148;-1.656;2023-07-31T17:54:20;24.40;99.90
26964;DHT22;14521;48.148;-1.656;2023-07-31T17:57:44;24.40;99.90
26964;DHT22;14521;48.148;-1.656;2023-07-31T18:01:06;24.40;99.90
26964;DHT22;14521;48.148;-1.656;2023-07-31T18:04:28;24.40;99.90
26964;DHT22;14521;48.148;-1.656;2023-07-31T18:07:51;24.50;99.90
26964;DHT22;14521;48.148;-1.656;2023-07-31T18:11:13;24.50;99.90
26964;DHT22;14521;48.148;-1.656;2023-07-31T18:14:36;24.40;99.90
26964;DHT22;14521;48.148;-1.656;2023-07-31T18:18:00;24.40;99.90
26964;DHT22;14521;48.148;-1.656;2023-07-31T18:21:22;24.40;99.90
26964;DHT22;14521;48.148;-1.656;2023-07-31T18:24:44;24.40;99.90
26964;DHT22;14521;48.148;-1.656;2023-07-31T18:28:07;24.40;99.90
26964;DHT22;14521;48.148;-1.656;2023-07-31T18:31:29;24.40;99.90
26964;DHT22;14521;48.148;-1.656;2023-07-31T18:34:51;24.40;99.90
26964;DHT22;14521;48.148;-1.656;2023-07-31T18:38:13;24.40;99.90
26964;DHT22;14521;48.148;-1.656;2023-07-31T18:41:36;24.50;99.90
26964;DHT22;14521;48.148;-1.656;2023-07-31T18:44:58;24.40;99.90
26964;DHT22;14521;48.148;-1.656;2023-07-31T18:48:20;24.40;99.90
26964;DHT22;14521;48.148;-1.656;2023-07-31T18:51:42;24.40;99.90
26964;DHT22;14521;48.148;-1.656;2023-07-31T18:55:05;24.30;99.90
26964;DHT22;14521;48.148;-1.656;2023-07-31T18:58:27;24.40;99.90
26964;DHT22;14521;48.148;-1.656;2023-07-31T19:01:50;24.40;99.90
26964;DHT22;14521;48.148;-1.656;2023-07-31T19:05:12;24.40;99.90
26964;DHT22;14521;48.148;-1.656;2023-07-31T19:08:34;24.30;99.90
26964;DHT22;14521;48.148;-1.656;2023-07-31T19:11:57;24.40;99.90
26964;DHT22;14521;48.148;-1.656;2023-07-31T19:15:19;24.40;99.90
26964;DHT22;14521;48.148;-1.656;2023-07-31T19:18:42;24.30;99.90
26964;DHT22;14521;48.148;-1.656;2023-07-31T19:22:05;24.30;99.90
26964;DHT22;14521;48.148;-1.656;2023-07-31T19:25:27;24.30;99.90
26964;DHT22;14521;48.148;-1.656;2023-07-31T19:28:49;24.20;99.90
26964;DHT22;14521;48.148;-1.656;2023-07-31T19:32:12;24.20;99.90
26964;DHT22;14521;48.148;-1.656;2023-07-31T19:35:36;24.20;99.90
26964;DHT22;14521;48.148;-1.656;2023-07-31T19:38:58;24.20;99.90
26964;DHT22;14521;48.148;-1.656;2023-07-31T19:42:21;24.20;99.90
26964;DHT22;14521;48.148;-1.656;2023-07-31T19:45:43;24.20;99.90
26964;DHT22;14521;48.148;-1.656;2023-07-31T19:49:05;24.10;99.90
26964;DHT22;14521;48.148;-1.656;2023-07-31T19:52:28;24.10;99.90
26964;DHT22;14521;48.148;-1.656;2023-07-31T19:55:50;24.10;99.90
26964;DHT22;14521;48.148;-1.656;2023-07-31T19:59:12;24.10;99.90
26964;DHT22;14521;48.148;-1.656;2023-07-31T20:02:34;24.10;99.90
26964;DHT22;14521;48.148;-1.656;2023-07-31T20:05:57;24.10;99.90
26964;DHT22;14521;48.148;-1.656;2023-07-31T20:09:19;24.10;99.90
26964;DHT22;14521;48.148;-1.656;2023-07-31T20:12:43;24.10;99.90
26964;DHT22;14521;48.148;-1.656;2023-07-31T20:16:06;24.10;99.90
26964;DHT22;14521;48.148;-1.656;2023-07-31T20:19:28;24.20;99.90
26964;DHT22;14521;48.148;-1.656;2023-07-31T20:22:51;24.10;99.90
26964;DHT22;14521;48.148;-1.656;2023-07-31T20:26:13;24.10;99.90
26964;DHT22;14521;48.148;-1.656;2023-07-31T20:29:35;24.20;99.90
26964;DHT22;14521;48.148;-1.656;2023-07-31T20:32:58;24.20;99.90
26964;DHT22;14521;48.148;-1.656;2023-07-31T20:36:20;24.10;99.90
26964;DHT22;14521;48.148;-1.656;2023-07-31T20:39:42;24.10;99.90
26964;DHT22;14521;48.148;-1.656;2023-07-31T20:43:05;24.10;99.90
26964;DHT22;14521;48.148;-1.656;2023-07-31T20:46:27;24.10;99.90
26964;DHT22;14521;48.148;-1.656;2023-07-31T20:49:49;24.10;99.90
26964;DHT22;14521;48.148;-1.656;2023-07-31T20:53:11;24.10;99.90
26964;DHT22;14521;48.148;-1.656;2023-07-31T20:56:33;24.10;99.90
26964;DHT22;14521;48.148;-1.656;2023-07-31T20:59:56;23.90;99.90
26964;DHT22;14521;48.148;-1.656;2023-07-31T21:03:18;23.90;99.90